sensor_id;sensor_type;location;lat;lon;timestamp;temperature;humidity
4505;DHT22;2265;48.794;9.520;2023-05-24T00:02:08;15.80;98.00
4505;DHT22;2265;48.794;9.520;2023-05-24T00:04:38;15.80;98.00
4505;DHT22;2265;48.794;9.520;2023-05-24T00:07:06;15.70;98.00
4505;DHT22;2265;48.794;9.520;2023-05-24T00:09:33;15.60;98.00
4505;DHT22;2265;48.794;9.520;2023-05-24T00:12:00;15.50;98.00
4505;DHT22;2265;48.794;9.520;2023-05-24T00:14:29;15.50;98.00
4505;DHT22;2265;48.794;9.520;2023-05-24T00:16:56;15.60;98.00
4505;DHT22;2265;48.794;9.520;2023-05-24T00:19:23;15.60;98.00
4505;DHT22;2265;48.794;9.520;2023-05-24T00:21:52;15.60;98.00
4505;DHT22;2265;48.794;9.520;2023-05-24T00:24:20;15.50;98.00
4505;DHT22;2265;48.794;9.520;2023-05-24T00:26:47;15.70;98.00
4505;DHT22;2265;48.794;9.520;2023-05-24T00:29:14;15.70;98.00
4505;DHT22;2265;48.794;9.520;2023-05-24T00:31:42;15.70;98.00
4505;DHT22;2265;48.794;9.520;2023-05-24T00:34:09;15.60;98.00
4505;DHT22;2265;48.794;9.520;2023-05-24T00:36:36;15.50;98.00
4505;DHT22;2265;48.794;9.520;2023-05-24T00:39:05;15.50;98.00
4505;DHT22;2265;48.794;9.520;2023-05-24T00:41:32;15.40;98.00
4505;DHT22;2265;48.794;9.520;2023-05-24T00:43:59;15.40;98.00
4505;DHT22;2265;48.794;9.520;2023-05-24T00:46:28;15.50;98.00
4505;DHT22;2265;48.794;9.520;2023-05-24T00:48:57;15.50;98.00
4505;DHT22;2265;48.794;9.520;2023-05-24T00:51:25;15.60;98.00
4505;DHT22;2265;48.794;9.520;2023-05-24T00:53:53;15.60;98.00
4505;DHT22;2265;48.794;9.520;2023-05-24T00:56:20;15.60;98.00
4505;DHT22;2265;48.794;9.520;2023-05-24T00:58:48;15.60;98.00
4505;DHT22;2265;48.794;9.520;2023-05-24T01:01:19;15.50;98.00
4505;DHT22;2265;48.794;9.520;2023-05-24T01:03:50;15.50;98.00
4505;DHT22;2265;48.794;9.520;2023-05-24T01:06:19;15.50;98.00
4505;DHT22;2265;48.794;9.520;2023-05-24T01:08:58;15.60;98.00
4505;DHT22;2265;48.794;9.520;2023-05-24T01:11:34;15.40;98.00
4505;DHT22;2265;48.794;9.520;2023-05-24T01:14:17;15.40;98.00
4505;DHT22;2265;48.794;9.520;2023-05-24T01:16:51;15.30;98.00
4505;DHT22;2265;48.794;9.520;2023-05-24T01:19:48;15.30;98.00
4505;DHT22;2265;48.794;9.520;2023-05-24T01:22:43;15.40;98.00
4505;DHT22;2265;48.794;9.520;2023-05-24T01:25:22;15.20;98.00
4505;DHT22;2265;48.794;9.520;2023-05-24T01:27:54;15.00;98.00
4505;DHT22;2265;48.794;9.520;2023-05-24T01:30:22;14.80;98.00
4505;DHT22;2265;48.794;9.520;2023-05-24T01:32:50;14.80;98.00
4505;DHT22;2265;48.794;9.520;2023-05-24T01:35:17;14.80;98.00
4505;DHT22;2265;48.794;9.520;2023-05-24T01:37:44;14.70;98.00
4505;DHT22;2265;48.794;9.520;2023-05-24T01:40:12;14.60;98.00
4505;DHT22;2265;48.794;9.520;2023-05-24T01:42:44;14.80;98.00
4505;DHT22;2265;48.794;9.520;2023-05-24T01:45:18;14.80;98.00
4505;DHT22;2265;48.794;9.520;2023-05-24T01:47:57;14.70;98.00
4505;DHT22;2265;48.794;9.520;2023-05-24T01:50:31;14.50;98.00
4505;DHT22;2265;48.794;9.520;2023-05-24T01:53:03;14.40;98.00
4505;DHT22;2265;48.794;9.520;2023-05-24T01:55:32;14.40;98.00
4505;DHT22;2265;48.794;9.520;2023-05-24T01:58:04;14.30;98.00
4505;DHT22;2265;48.794;9.520;2023-05-24T02:00:33;14.20;98.00
4505;DHT22;2265;48.794;9.520;2023-05-24T02:03:01;14.20;98.00
4505;DHT22;2265;48.794;9.520;2023-05-24T02:05:30;14.10;98.00
4505;DHT22;2265;48.794;9.520;2023-05-24T02:07:57;14.10;98.00
4505;DHT22;2265;48.794;9.520;2023-05-24T02:10:24;13.90;98.00
4505;DHT22;2265;48.794;9.520;2023-05-24T02:12:51;14.10;98.00
4505;DHT22;2265;48.794;9.520;2023-05-24T02:15:18;14.30;98.00
4505;DHT22;2265;48.794;9.520;2023-05-24T02:17:47;14.40;98.00
4505;DHT22;2265;48.794;9.520;2023-05-24T02:20:17;14.20;98.00
4505;DHT22;2265;48.794;9.520;2023-05-24T02:22:47;14.30;98.00
4505;DHT22;2265;48.794;9.520;2023-05-24T02:25:14;14.50;98.00
4505;DHT22;2265;48.794;9.520;2023-05-24T02:27:41;14.60;98.00
4505;DHT22;2265;48.794;9.520;2023-05-24T02:30:12;14.40;98.00
4505;DHT22;2265;48.794;9.520;2023-05-24T02:32:39;14.50;98.00
4505;DHT22;2265;48.794;9.520;2023-05-24T02:35:08;14.70;98.00
4505;DHT22;2265;48.794;9.520;2023-05-24T02:37:35;14.70;98.00
4505;DHT22;2265;48.794;9.520;2023-05-24T02:40:02;14.80;98.00
4505;DHT22;2265;48.794;9.520;2023-05-24T02:42:30;14.80;98.00
4505;DHT22;2265;48.794;9.520;2023-05-24T02:44:59;14.70;98.00
4505;DHT22;2265;48.794;9.520;2023-05-24T02:47:26;14.80;98.00
4505;DHT22;2265;48.794;9.520;2023-05-24T02:49:53;14.70;98.00
4505;DHT22;2265;48.794;9.520;2023-05-24T02:52:21;14.70;98.00
4505;DHT22;2265;48.794;9.520;2023-05-24T02:54:49;14.60;98.00
4505;DHT22;2265;48.794;9.520;2023-05-24T02:57:16;14.70;98.00
4505;DHT22;2265;48.794;9.520;2023-05-24T02:59:43;14.70;98.00
4505;DHT22;2265;48.794;9.520;2023-05-24T03:02:11;14.60;98.00
4505;DHT22;2265;48.794;9.520;2023-05-24T03:04:39;14.60;98.00
4505;DHT22;2265;48.794;9.520;2023-05-24T03:07:06;14.50;98.00
4505;DHT22;2265;48.794;9.520;2023-05-24T03:09:34;14.60;98.00
4505;DHT22;2265;48.794;9.520;2023-05-24T03:12:02;14.50;98.00
4505;DHT22;2265;48.794;9.520;2023-05-24T03:14:29;14.50;98.00
4505;DHT22;2265;48.794;9.520;2023-05-24T03:16:56;14.40;98.00
4505;DHT22;2265;48.794;9.520;2023-05-24T03:19:23;14.40;98.00
4505;DHT22;2265;48.794;9.520;2023-05-24T03:21:50;14.30;98.00
4505;DHT22;2265;48.794;9.520;2023-05-24T03:24:17;14.40;98.00
4505;DHT22;2265;48.794;9.520;2023-05-24T03:26:47;14.40;98.00
4505;DHT22;2265;48.794;9.520;2023-05-24T03:29:14;14.40;98.00
4505;DHT22;2265;48.794;9.520;2023-05-24T03:31:41;14.40;98.00
4505;DHT22;2265;48.794;9.520;2023-05-24T03:34:08;14.40;98.00
4505;DHT22;2265;48.794;9.520;2023-05-24T03:36:35;14.30;98.00
4505;DHT22;2265;48.794;9.520;2023-05-24T03:39:04;14.30;98.00
4505;DHT22;2265;48.794;9.520;2023-05-24T03:41:32;14.40;98.00
4505;DHT22;2265;48.794;9.520;2023-05-24T03:44:00;14.30;98.00
4505;DHT22;2265;48.794;9.520;2023-05-24T03:46:27;14.30;98.00
4505;DHT22;2265;48.794;9.520;2023-05-24T03:48:54;14.20;98.00
4505;DHT22;2265;48.794;9.520;2023-05-24T03:51:21;14.10;98.00
4505;DHT22;2265;48.794;9.520;2023-05-24T03:53:54;14.00;98.00
4505;DHT22;2265;48.794;9.520;2023-05-24T03:56:21;14.10;98.00
4505;DHT22;2265;48.794;9.520;2023-05-24T03:58:49;14.10;98.00
4505;DHT22;2265;48.794;9.520;2023-05-24T04:01:18;14.00;98.00
4505;DHT22;2265;48.794;9.520;2023-05-24T04:03:46;13.80;98.00
4505;DHT22;2265;48.794;9.520;2023-05-24T04:06:13;13.90;98.00
4505;DHT22;2265;48.794;9.520;2023-05-24T04:08:40;13.90;98.00
4505;DHT22;2265;48.794;9.520;2023-05-24T04:11:07;14.00;98.00
4505;DHT22;2265;48.794;9.520;2023-05-24T04:13:36;14.10;98.00
4505;DHT22;2265;48.794;9.520;2023-05-24T04:16:04;14.00;98.00
4505;DHT22;2265;48.794;9.520;2023-05-24T04:18:38;13.90;98.00
4505;DHT22;2265;48.794;9.520;2023-05-24T04:21:05;13.90;98.00
4505;DHT22;2265;48.794;9.520;2023-05-24T04:23:32;13.90;98.00
4505;DHT22;2265;48.794;9.520;2023-05-24T04:25:59;14.00;98.00
4505;DHT22;2265;48.794;9.520;2023-05-24T04:28:26;14.00;98.00
4505;DHT22;2265;48.794;9.520;2023-05-24T04:30:53;14.00;98.00
4505;DHT22;2265;48.794;9.520;2023-05-24T04:33:22;13.90;98.00
4505;DHT22;2265;48.794;9.520;2023-05-24T04:35:50;13.90;98.00
4505;DHT22;2265;48.794;9.520;2023-05-24T04:38:18;13.90;98.00
4505;DHT22;2265;48.794;9.520;2023-05-24T04:40:45;13.90;98.00
4505;DHT22;2265;48.794;9.520;2023-05-24T04:43:13;14.00;98.00
4505;DHT22;2265;48.794;9.520;2023-05-24T04:45:40;14.10;98.00
4505;DHT22;2265;48.794;9.520;2023-05-24T04:48:09;13.90;98.00
4505;DHT22;2265;48.794;9.520;2023-05-24T04:50:36;13.80;98.00
4505;DHT22;2265;48.794;9.520;2023-05-24T04:53:05;13.70;98.00
4505;DHT22;2265;48.794;9.520;2023-05-24T04:55:32;13.90;98.00
4505;DHT22;2265;48.794;9.520;2023-05-24T04:57:59;14.00;98.00
4505;DHT22;2265;48.794;9.520;2023-05-24T05:00:26;14.00;98.00
4505;DHT22;2265;48.794;9.520;2023-05-24T05:02:53;14.10;98.00
4505;DHT22;2265;48.794;9.520;2023-05-24T05:05:20;14.10;98.00
4505;DHT22;2265;48.794;9.520;2023-05-24T05:07:47;14.10;98.00
4505;DHT22;2265;48.794;9.520;2023-05-24T05:10:18;13.90;98.00
4505;DHT22;2265;48.794;9.520;2023-05-24T05:12:45;14.00;98.00
4505;DHT22;2265;48.794;9.520;2023-05-24T05:15:12;14.00;98.00
4505;DHT22;2265;48.794;9.520;2023-05-24T05:17:40;13.90;98.00
4505;DHT22;2265;48.794;9.520;2023-05-24T05:20:08;13.80;98.00
4505;DHT22;2265;48.794;9.520;2023-05-24T05:22:35;13.70;98.00
4505;DHT22;2265;48.794;9.520;2023-05-24T05:25:02;13.80;98.00
4505;DHT22;2265;48.794;9.520;2023-05-24T05:27:31;13.90;98.00
4505;DHT22;2265;48.794;9.520;2023-05-24T05:29:58;14.00;98.00
4505;DHT22;2265;48.794;9.520;2023-05-24T05:32:25;14.10;98.00
4505;DHT22;2265;48.794;9.520;2023-05-24T05:34:52;14.10;98.00
4505;DHT22;2265;48.794;9.520;2023-05-24T05:37:20;14.20;98.00
4505;DHT22;2265;48.794;9.520;2023-05-24T05:39:48;14.30;98.00
4505;DHT22;2265;48.794;9.520;2023-05-24T05:42:15;14.20;98.00
4505;DHT22;2265;48.794;9.520;2023-05-24T05:44:44;14.30;98.00
4505;DHT22;2265;48.794;9.520;2023-05-24T05:47:11;14.00;98.00
4505;DHT22;2265;48.794;9.520;2023-05-24T05:49:38;14.00;98.00
4505;DHT22;2265;48.794;9.520;2023-05-24T05:52:05;13.90;98.00
4505;DHT22;2265;48.794;9.520;2023-05-24T05:54:32;14.00;98.00
4505;DHT22;2265;48.794;9.520;2023-05-24T05:56:59;14.00;98.00
4505;DHT22;2265;48.794;9.520;2023-05-24T05:59:27;14.00;98.00
4505;DHT22;2265;48.794;9.520;2023-05-24T06:01:57;14.10;98.00
4505;DHT22;2265;48.794;9.520;2023-05-24T06:04:24;14.00;98.00
4505;DHT22;2265;48.794;9.520;2023-05-24T06:06:51;14.00;98.00
4505;DHT22;2265;48.794;9.520;2023-05-24T06:09:18;13.90;98.00
4505;DHT22;2265;48.794;9.520;2023-05-24T06:11:45;13.90;98.00
4505;DHT22;2265;48.794;9.520;2023-05-24T06:14:13;14.10;98.00
4505;DHT22;2265;48.794;9.520;2023-05-24T06:16:44;14.10;98.00
4505;DHT22;2265;48.794;9.520;2023-05-24T06:19:14;13.90;98.00
4505;DHT22;2265;48.794;9.520;2023-05-24T06:21:41;14.10;98.00
4505;DHT22;2265;48.794;9.520;2023-05-24T06:24:12;14.10;98.00
4505;DHT22;2265;48.794;9.520;2023-05-24T06:26:39;14.10;98.00
4505;DHT22;2265;48.794;9.520;2023-05-24T06:29:07;14.20;98.00
4505;DHT22;2265;48.794;9.520;2023-05-24T06:31:34;14.10;98.00
4505;DHT22;2265;48.794;9.520;2023-05-24T06:34:01;14.30;98.00
4505;DHT22;2265;48.794;9.520;2023-05-24T06:36:29;14.40;98.00
4505;DHT22;2265;48.794;9.520;2023-05-24T06:38:58;14.50;98.00
4505;DHT22;2265;48.794;9.520;2023-05-24T06:41:26;14.40;98.00
4505;DHT22;2265;48.794;9.520;2023-05-24T06:43:53;14.40;98.00
4505;DHT22;2265;48.794;9.520;2023-05-24T06:46:20;14.30;98.00
4505;DHT22;2265;48.794;9.520;2023-05-24T06:48:47;14.30;98.00
4505;DHT22;2265;48.794;9.520;2023-05-24T06:51:14;14.20;98.00
4505;DHT22;2265;48.794;9.520;2023-05-24T06:53:44;14.50;98.00
4505;DHT22;2265;48.794;9.520;2023-05-24T06:56:11;14.70;98.00
4505;DHT22;2265;48.794;9.520;2023-05-24T06:58:38;14.90;98.00
4505;DHT22;2265;48.794;9.520;2023-05-24T07:01:05;14.90;98.00
4505;DHT22;2265;48.794;9.520;2023-05-24T07:03:33;15.00;98.00
4505;DHT22;2265;48.794;9.520;2023-05-24T07:06:00;14.90;98.00
4505;DHT22;2265;48.794;9.520;2023-05-24T07:08:28;14.90;98.00
4505;DHT22;2265;48.794;9.520;2023-05-24T07:10:56;14.80;98.00
4505;DHT22;2265;48.794;9.520;2023-05-24T07:13:24;14.90;98.00
4505;DHT22;2265;48.794;9.520;2023-05-24T07:15:52;14.90;98.00
4505;DHT22;2265;48.794;9.520;2023-05-24T07:18:19;14.80;98.00
4505;DHT22;2265;48.794;9.520;2023-05-24T07:20:46;14.70;98.00
4505;DHT22;2265;48.794;9.520;2023-05-24T07:23:13;14.70;98.00
4505;DHT22;2265;48.794;9.520;2023-05-24T07:25:40;14.80;98.00
4505;DHT22;2265;48.794;9.520;2023-05-24T07:28:09;14.90;98.00
4505;DHT22;2265;48.794;9.520;2023-05-24T07:30:36;14.90;98.00
4505;DHT22;2265;48.794;9.520;2023-05-24T07:33:03;14.90;98.00
4505;DHT22;2265;48.794;9.520;2023-05-24T07:35:31;15.00;98.00
4505;DHT22;2265;48.794;9.520;2023-05-24T07:37:58;15.00;98.00
4505;DHT22;2265;48.794;9.520;2023-05-24T07:40:25;15.10;98.00
4505;DHT22;2265;48.794;9.520;2023-05-24T07:42:52;15.10;98.00
4505;DHT22;2265;48.794;9.520;2023-05-24T07:45:21;15.10;98.00
4505;DHT22;2265;48.794;9.520;2023-05-24T07:47:48;15.10;98.00
4505;DHT22;2265;48.794;9.520;2023-05-24T07:50:15;15.20;98.00
4505;DHT22;2265;48.794;9.520;2023-05-24T07:52:43;15.20;98.00
4505;DHT22;2265;48.794;9.520;2023-05-24T07:55:10;15.20;98.00
4505;DHT22;2265;48.794;9.520;2023-05-24T07:57:37;15.20;98.00
4505;DHT22;2265;48.794;9.520;2023-05-24T08:00:05;15.30;98.00
4505;DHT22;2265;48.794;9.520;2023-05-24T08:02:42;15.30;98.00
4505;DHT22;2265;48.794;9.520;2023-05-24T08:05:11;15.30;98.00
4505;DHT22;2265;48.794;9.520;2023-05-24T08:07:38;15.20;98.00
4505;DHT22;2265;48.794;9.520;2023-05-24T08:10:08;15.20;98.00
4505;DHT22;2265;48.794;9.520;2023-05-24T08:12:35;15.20;98.00
4505;DHT22;2265;48.794;9.520;2023-05-24T08:15:03;15.30;98.00
4505;DHT22;2265;48.794;9.520;2023-05-24T08:17:30;15.20;98.00
4505;DHT22;2265;48.794;9.520;2023-05-24T08:19:58;15.20;98.00
4505;DHT22;2265;48.794;9.520;2023-05-24T08:22:25;15.10;98.00
4505;DHT22;2265;48.794;9.520;2023-05-24T08:24:52;15.00;98.00
4505;DHT22;2265;48.794;9.520;2023-05-24T08:27:20;15.00;98.00
4505;DHT22;2265;48.794;9.520;2023-05-24T08:29:47;15.10;98.00
4505;DHT22;2265;48.794;9.520;2023-05-24T08:32:14;15.20;98.00
4505;DHT22;2265;48.794;9.520;2023-05-24T08:34:41;15.30;98.00
4505;DHT22;2265;48.794;9.520;2023-05-24T08:37:10;15.30;98.00
4505;DHT22;2265;48.794;9.520;2023-05-24T08:39:39;15.20;98.00
4505;DHT22;2265;48.794;9.520;2023-05-24T08:42:07;15.30;98.00
4505;DHT22;2265;48.794;9.520;2023-05-24T08:44:37;15.20;98.00
4505;DHT22;2265;48.794;9.520;2023-05-24T08:47:07;15.40;98.00
4505;DHT22;2265;48.794;9.520;2023-05-24T08:49:36;15.50;98.00
4505;DHT22;2265;48.794;9.520;2023-05-24T08:52:04;15.70;98.00
4505;DHT22;2265;48.794;9.520;2023-05-24T08:54:35;15.60;98.00
4505;DHT22;2265;48.794;9.520;2023-05-24T08:57:02;15.70;98.00
4505;DHT22;2265;48.794;9.520;2023-05-24T08:59:30;15.70;98.00
4505;DHT22;2265;48.794;9.520;2023-05-24T09:01:57;15.70;98.00
4505;DHT22;2265;48.794;9.520;2023-05-24T09:04:26;15.50;98.00
4505;DHT22;2265;48.794;9.520;2023-05-24T09:06:54;15.60;98.00
4505;DHT22;2265;48.794;9.520;2023-05-24T09:09:26;15.60;98.00
4505;DHT22;2265;48.794;9.520;2023-05-24T09:11:56;15.60;98.00
4505;DHT22;2265;48.794;9.520;2023-05-24T09:14:25;15.60;98.00
4505;DHT22;2265;48.794;9.520;2023-05-24T09:16:52;15.60;98.00
4505;DHT22;2265;48.794;9.520;2023-05-24T09:19:20;15.60;98.00
4505;DHT22;2265;48.794;9.520;2023-05-24T09:21:48;15.60;98.00
4505;DHT22;2265;48.794;9.520;2023-05-24T09:24:17;15.60;98.00
4505;DHT22;2265;48.794;9.520;2023-05-24T09:26:48;15.60;98.00
4505;DHT22;2265;48.794;9.520;2023-05-24T09:29:21;15.50;98.00
4505;DHT22;2265;48.794;9.520;2023-05-24T09:31:49;15.40;98.00
4505;DHT22;2265;48.794;9.520;2023-05-24T09:34:18;15.30;98.00
4505;DHT22;2265;48.794;9.520;2023-05-24T09:36:47;15.40;98.00
4505;DHT22;2265;48.794;9.520;2023-05-24T09:39:16;15.60;98.00
4505;DHT22;2265;48.794;9.520;2023-05-24T09:41:51;15.60;98.00
4505;DHT22;2265;48.794;9.520;2023-05-24T09:44:25;15.60;98.00
4505;DHT22;2265;48.794;9.520;2023-05-24T09:46:52;15.60;98.00
4505;DHT22;2265;48.794;9.520;2023-05-24T09:49:20;15.70;98.00
4505;DHT22;2265;48.794;9.520;2023-05-24T09:51:47;15.80;98.00
4505;DHT22;2265;48.794;9.520;2023-05-24T09:54:14;15.80;98.00
4505;DHT22;2265;48.794;9.520;2023-05-24T09:56:45;15.70;98.00
4505;DHT22;2265;48.794;9.520;2023-05-24T09:59:13;15.60;98.00
4505;DHT22;2265;48.794;9.520;2023-05-24T10:01:41;15.70;98.00
4505;DHT22;2265;48.794;9.520;2023-05-24T10:04:08;15.70;98.00
4505;DHT22;2265;48.794;9.520;2023-05-24T10:06:36;15.70;98.00
4505;DHT22;2265;48.794;9.520;2023-05-24T10:09:04;15.60;98.00
4505;DHT22;2265;48.794;9.520;2023-05-24T10:11:33;15.50;98.00
4505;DHT22;2265;48.794;9.520;2023-05-24T10:14:03;15.60;98.00
4505;DHT22;2265;48.794;9.520;2023-05-24T10:16:31;15.70;98.00
4505;DHT22;2265;48.794;9.520;2023-05-24T10:19:00;15.80;98.00
4505;DHT22;2265;48.794;9.520;2023-05-24T10:21:28;15.80;98.00
4505;DHT22;2265;48.794;9.520;2023-05-24T10:23:58;15.80;98.00
4505;DHT22;2265;48.794;9.520;2023-05-24T10:26:30;15.70;98.00
4505;DHT22;2265;48.794;9.520;2023-05-24T10:29:03;15.60;98.00
4505;DHT22;2265;48.794;9.520;2023-05-24T10:31:33;15.60;98.00
4505;DHT22;2265;48.794;9.520;2023-05-24T10:34:04;15.60;98.00
4505;DHT22;2265;48.794;9.520;2023-05-24T10:36:32;15.60;98.00
4505;DHT22;2265;48.794;9.520;2023-05-24T10:39:00;15.60;98.00
4505;DHT22;2265;48.794;9.520;2023-05-24T10:41:28;15.50;98.00
4505;DHT22;2265;48.794;9.520;2023-05-24T10:43:56;15.50;98.00
4505;DHT22;2265;48.794;9.520;2023-05-24T10:46:23;15.30;98.00
4505;DHT22;2265;48.794;9.520;2023-05-24T10:49:00;15.30;98.00
4505;DHT22;2265;48.794;9.520;2023-05-24T10:51:35;15.30;98.00
4505;DHT22;2265;48.794;9.520;2023-05-24T10:54:19;15.30;98.00
4505;DHT22;2265;48.794;9.520;2023-05-24T10:56:51;15.30;98.00
4505;DHT22;2265;48.794;9.520;2023-05-24T10:59:37;15.30;98.00
4505;DHT22;2265;48.794;9.520;2023-05-24T11:02:06;15.40;98.00
4505;DHT22;2265;48.794;9.520;2023-05-24T11:04:39;15.30;98.00
4505;DHT22;2265;48.794;9.520;2023-05-24T11:07:09;15.40;98.00
4505;DHT22;2265;48.794;9.520;2023-05-24T11:09:38;15.50;98.00
4505;DHT22;2265;48.794;9.520;2023-05-24T11:12:13;15.60;98.00
4505;DHT22;2265;48.794;9.520;2023-05-24T11:14:46;15.60;98.00
4505;DHT22;2265;48.794;9.520;2023-05-24T11:17:14;15.60;98.00
4505;DHT22;2265;48.794;9.520;2023-05-24T11:19:46;15.60;98.00
4505;DHT22;2265;48.794;9.520;2023-05-24T11:22:15;15.50;98.00
4505;DHT22;2265;48.794;9.520;2023-05-24T11:24:43;15.60;98.00
4505;DHT22;2265;48.794;9.520;2023-05-24T11:27:12;15.70;98.00
4505;DHT22;2265;48.794;9.520;2023-05-24T11:29:40;15.70;98.00
4505;DHT22;2265;48.794;9.520;2023-05-24T11:32:08;15.80;98.00
4505;DHT22;2265;48.794;9.520;2023-05-24T11:34:36;15.90;98.00
4505;DHT22;2265;48.794;9.520;2023-05-24T11:37:04;16.00;98.00
4505;DHT22;2265;48.794;9.520;2023-05-24T11:39:34;16.10;98.00
4505;DHT22;2265;48.794;9.520;2023-05-24T11:42:04;16.00;98.00
4505;DHT22;2265;48.794;9.520;2023-05-24T11:44:33;16.30;98.00
4505;DHT22;2265;48.794;9.520;2023-05-24T11:47:05;16.50;98.00
4505;DHT22;2265;48.794;9.520;2023-05-24T11:49:34;16.70;98.00
4505;DHT22;2265;48.794;9.520;2023-05-24T11:52:01;16.90;98.00
4505;DHT22;2265;48.794;9.520;2023-05-24T11:54:29;17.00;98.00
4505;DHT22;2265;48.794;9.520;2023-05-24T11:56:58;17.00;98.00
4505;DHT22;2265;48.794;9.520;2023-05-24T11:59:27;17.00;98.00
4505;DHT22;2265;48.794;9.520;2023-05-24T12:01:57;16.90;98.00
4505;DHT22;2265;48.794;9.520;2023-05-24T12:04:26;16.80;98.00
4505;DHT22;2265;48.794;9.520;2023-05-24T12:06:53;16.90;98.00
4505;DHT22;2265;48.794;9.520;2023-05-24T12:09:21;17.10;98.00
4505;DHT22;2265;48.794;9.520;2023-05-24T12:11:50;17.20;98.00
4505;DHT22;2265;48.794;9.520;2023-05-24T12:14:22;17.90;98.00
4505;DHT22;2265;48.794;9.520;2023-05-24T12:16:54;18.30;98.00
4505;DHT22;2265;48.794;9.520;2023-05-24T12:19:22;18.90;97.70
4505;DHT22;2265;48.794;9.520;2023-05-24T12:21:54;19.40;96.10
4505;DHT22;2265;48.794;9.520;2023-05-24T12:24:23;19.60;95.60
4505;DHT22;2265;48.794;9.520;2023-05-24T12:26:51;19.50;95.70
4505;DHT22;2265;48.794;9.520;2023-05-24T12:29:19;19.30;94.30
4505;DHT22;2265;48.794;9.520;2023-05-24T12:31:47;19.80;94.40
4505;DHT22;2265;48.794;9.520;2023-05-24T12:34:16;20.30;92.90
4505;DHT22;2265;48.794;9.520;2023-05-24T12:36:43;20.40;91.60
4505;DHT22;2265;48.794;9.520;2023-05-24T12:39:17;20.20;89.10
4505;DHT22;2265;48.794;9.520;2023-05-24T12:41:49;19.90;89.00
4505;DHT22;2265;48.794;9.520;2023-05-24T12:44:16;19.40;88.50
4505;DHT22;2265;48.794;9.520;2023-05-24T12:46:45;19.10;91.40
4505;DHT22;2265;48.794;9.520;2023-05-24T12:49:13;19.00;91.80
4505;DHT22;2265;48.794;9.520;2023-05-24T12:51:42;19.20;92.50
4505;DHT22;2265;48.794;9.520;2023-05-24T12:54:09;19.80;87.90
4505;DHT22;2265;48.794;9.520;2023-05-24T12:56:36;20.10;85.90
4505;DHT22;2265;48.794;9.520;2023-05-24T12:59:03;20.60;87.80
4505;DHT22;2265;48.794;9.520;2023-05-24T13:01:31;20.90;89.10
4505;DHT22;2265;48.794;9.520;2023-05-24T13:03:59;21.20;85.60
4505;DHT22;2265;48.794;9.520;2023-05-24T13:06:27;21.50;84.50
4505;DHT22;2265;48.794;9.520;2023-05-24T13:08:54;21.70;84.80
4505;DHT22;2265;48.794;9.520;2023-05-24T13:11:21;21.90;81.30
4505;DHT22;2265;48.794;9.520;2023-05-24T13:13:50;22.10;82.50
4505;DHT22;2265;48.794;9.520;2023-05-24T13:16:17;22.40;80.40
4505;DHT22;2265;48.794;9.520;2023-05-24T13:18:44;22.30;80.60
4505;DHT22;2265;48.794;9.520;2023-05-24T13:21:13;22.30;78.00
4505;DHT22;2265;48.794;9.520;2023-05-24T13:23:40;22.30;76.00
4505;DHT22;2265;48.794;9.520;2023-05-24T13:26:08;22.40;77.30
4505;DHT22;2265;48.794;9.520;2023-05-24T13:28:35;22.60;75.60
4505;DHT22;2265;48.794;9.520;2023-05-24T13:31:03;22.60;73.10
4505;DHT22;2265;48.794;9.520;2023-05-24T13:33:31;22.90;75.60
4505;DHT22;2265;48.794;9.520;2023-05-24T13:35:58;23.20;74.40
4505;DHT22;2265;48.794;9.520;2023-05-24T13:38:28;23.20;69.10
4505;DHT22;2265;48.794;9.520;2023-05-24T13:40:56;23.50;70.20
4505;DHT22;2265;48.794;9.520;2023-05-24T13:43:23;23.80;69.50
4505;DHT22;2265;48.794;9.520;2023-05-24T13:45:51;23.70;70.00
4505;DHT22;2265;48.794;9.520;2023-05-24T13:48:18;23.60;70.10
4505;DHT22;2265;48.794;9.520;2023-05-24T13:50:45;23.20;69.60
4505;DHT22;2265;48.794;9.520;2023-05-24T13:53:13;23.20;71.50
4505;DHT22;2265;48.794;9.520;2023-05-24T13:55:43;23.00;72.30
4505;DHT22;2265;48.794;9.520;2023-05-24T13:58:10;22.40;72.70
4505;DHT22;2265;48.794;9.520;2023-05-24T14:00:37;22.30;69.90
4505;DHT22;2265;48.794;9.520;2023-05-24T14:03:04;22.30;72.30
4505;DHT22;2265;48.794;9.520;2023-05-24T14:05:32;22.50;71.30
4505;DHT22;2265;48.794;9.520;2023-05-24T14:07:59;22.80;70.40
4505;DHT22;2265;48.794;9.520;2023-05-24T14:10:31;22.90;71.50
4505;DHT22;2265;48.794;9.520;2023-05-24T14:13:00;22.90;69.90
4505;DHT22;2265;48.794;9.520;2023-05-24T14:15:27;23.00;70.00
4505;DHT22;2265;48.794;9.520;2023-05-24T14:17:54;22.60;69.60
4505;DHT22;2265;48.794;9.520;2023-05-24T14:20:21;22.70;71.20
4505;DHT22;2265;48.794;9.520;2023-05-24T14:22:48;22.90;72.50
4505;DHT22;2265;48.794;9.520;2023-05-24T14:25:17;23.10;69.90
4505;DHT22;2265;48.794;9.520;2023-05-24T14:27:44;23.40;69.60
4505;DHT22;2265;48.794;9.520;2023-05-24T14:30:15;23.50;68.60
4505;DHT22;2265;48.794;9.520;2023-05-24T14:32:42;23.50;69.40
4505;DHT22;2265;48.794;9.520;2023-05-24T14:35:09;23.40;68.10
4505;DHT22;2265;48.794;9.520;2023-05-24T14:37:37;23.50;71.40
4505;DHT22;2265;48.794;9.520;2023-05-24T14:40:05;23.40;70.10
4505;DHT22;2265;48.794;9.520;2023-05-24T14:42:32;23.50;71.40
4505;DHT22;2265;48.794;9.520;2023-05-24T14:44:59;23.20;68.00
4505;DHT22;2265;48.794;9.520;2023-05-24T14:47:28;23.30;69.90
4505;DHT22;2265;48.794;9.520;2023-05-24T14:49:55;23.20;73.40
4505;DHT22;2265;48.794;9.520;2023-05-24T14:52:22;23.30;71.70
4505;DHT22;2265;48.794;9.520;2023-05-24T14:54:49;23.40;72.00
4505;DHT22;2265;48.794;9.520;2023-05-24T14:57:17;23.80;72.40
4505;DHT22;2265;48.794;9.520;2023-05-24T14:59:53;24.00;69.30
4505;DHT22;2265;48.794;9.520;2023-05-24T15:02:20;24.00;69.80
4505;DHT22;2265;48.794;9.520;2023-05-24T15:04:48;24.00;70.50
4505;DHT22;2265;48.794;9.520;2023-05-24T15:07:15;23.80;71.90
4505;DHT22;2265;48.794;9.520;2023-05-24T15:09:43;24.00;69.50
4505;DHT22;2265;48.794;9.520;2023-05-24T15:12:10;24.00;72.40
4505;DHT22;2265;48.794;9.520;2023-05-24T15:14:37;23.80;73.00
4505;DHT22;2265;48.794;9.520;2023-05-24T15:17:04;23.60;72.80
4505;DHT22;2265;48.794;9.520;2023-05-24T15:19:31;23.10;74.20
4505;DHT22;2265;48.794;9.520;2023-05-24T15:22:02;23.00;75.70
4505;DHT22;2265;48.794;9.520;2023-05-24T15:24:29;23.30;74.80
4505;DHT22;2265;48.794;9.520;2023-05-24T15:26:56;23.40;74.30
4505;DHT22;2265;48.794;9.520;2023-05-24T15:29:23;23.80;75.50
4505;DHT22;2265;48.794;9.520;2023-05-24T15:31:50;24.10;75.80
4505;DHT22;2265;48.794;9.520;2023-05-24T15:34:17;24.20;73.10
4505;DHT22;2265;48.794;9.520;2023-05-24T15:36:48;24.10;74.60
4505;DHT22;2265;48.794;9.520;2023-05-24T15:39:17;23.60;74.40
4505;DHT22;2265;48.794;9.520;2023-05-24T15:41:44;23.20;76.40
4505;DHT22;2265;48.794;9.520;2023-05-24T15:44:11;23.40;74.70
4505;DHT22;2265;48.794;9.520;2023-05-24T15:46:39;23.60;74.40
4505;DHT22;2265;48.794;9.520;2023-05-24T15:49:06;23.60;74.90
4505;DHT22;2265;48.794;9.520;2023-05-24T15:51:33;23.60;74.40
4505;DHT22;2265;48.794;9.520;2023-05-24T15:54:02;23.60;73.80
4505;DHT22;2265;48.794;9.520;2023-05-24T15:56:30;23.70;71.20
4505;DHT22;2265;48.794;9.520;2023-05-24T15:58:57;23.60;73.10
4505;DHT22;2265;48.794;9.520;2023-05-24T16:01:24;23.00;74.80
4505;DHT22;2265;48.794;9.520;2023-05-24T16:03:51;22.70;75.60
4505;DHT22;2265;48.794;9.520;2023-05-24T16:06:18;22.50;74.50
4505;DHT22;2265;48.794;9.520;2023-05-24T16:08:45;22.50;76.20
4505;DHT22;2265;48.794;9.520;2023-05-24T16:11:14;22.80;74.00